sensor_id;sensor_type;location;lat;lon;timestamp;pressure;altitude;pressure_sealevel;temperature;humidity
13050;BME280;6591;51.446;5.404;2022-07-06T00:01:20;102270.50;;;17.47;40.99
13050;BME280;6591;51.446;5.404;2022-07-06T00:03:47;102264.50;;;17.42;41.13
13050;BME280;6591;51.446;5.404;2022-07-06T00:06:20;102266.56;;;17.37;41.39
13050;BME280;6591;51.446;5.404;2022-07-06T00:08:47;102268.63;;;17.32;41.85
13050;BME280;6591;51.446;5.404;2022-07-06T00:11:15;102268.81;;;17.27;41.69
13050;BME280;6591;51.446;5.404;2022-07-06T00:13:42;102267.19;;;17.25;41.77
13050;BME280;6591;51.446;5.404;2022-07-06T00:16:09;102267.31;;;17.22;41.70
13050;BME280;6591;51.446;5.404;2022-07-06T00:18:36;102269.22;;;17.20;41.79
13050;BME280;6591;51.446;5.404;2022-07-06T00:21:04;102263.16;;;17.16;42.17
13050;BME280;6591;51.446;5.404;2022-07-06T00:23:31;102264.16;;;17.14;41.91
13050;BME280;6591;51.446;5.404;2022-07-06T00:25:59;102270.56;;;17.11;42.03
13050;BME280;6591;51.446;5.404;2022-07-06T00:28:28;102276.13;;;17.07;42.14
13050;BME280;6591;51.446;5.404;2022-07-06T00:30:55;102276.28;;;17.04;42.29
13050;BME280;6591;51.446;5.404;2022-07-06T00:33:23;102274.72;;;17.00;42.14
13050;BME280;6591;51.446;5.404;2022-07-06T00:35:50;102274.06;;;16.94;42.22
13050;BME280;6591;51.446;5.404;2022-07-06T00:38:17;102271.69;;;16.88;42.25
13050;BME280;6591;51.446;5.404;2022-07-06T00:40:45;102269.22;;;16.84;42.28
13050;BME280;6591;51.446;5.404;2022-07-06T00:43:12;102272.19;;;16.78;42.61
13050;BME280;6591;51.446;5.404;2022-07-06T00:45:39;102269.81;;;16.72;42.64
13050;BME280;6591;51.446;5.404;2022-07-06T00:48:06;102271.78;;;16.68;42.70
13050;BME280;6591;51.446;5.404;2022-07-06T00:50:34;102274.69;;;16.64;42.61
13050;BME280;6591;51.446;5.404;2022-07-06T00:53:04;102271.38;;;16.57;42.88
13050;BME280;6591;51.446;5.404;2022-07-06T00:55:38;102276.88;;;16.54;42.92
13050;BME280;6591;51.446;5.404;2022-07-06T00:58:09;102280.63;;;16.50;43.20
13050;BME280;6591;51.446;5.404;2022-07-06T01:00:37;102273.69;;;16.46;43.07
13050;BME280;6591;51.446;5.404;2022-07-06T01:03:05;102269.25;;;16.45;43.40
13050;BME280;6591;51.446;5.404;2022-07-06T01:05:32;102274.78;;;16.42;43.51
13050;BME280;6591;51.446;5.404;2022-07-06T01:07:59;102278.47;;;16.39;43.34
13050;BME280;6591;51.446;5.404;2022-07-06T01:10:27;102273.19;;;16.38;43.67
13050;BME280;6591;51.446;5.404;2022-07-06T01:12:56;102270.63;;;16.35;43.69
13050;BME280;6591;51.446;5.404;2022-07-06T01:15:25;102270.78;;;16.32;43.72
13050;BME280;6591;51.446;5.404;2022-07-06T01:17:54;102276.28;;;16.29;43.84
13050;BME280;6591;51.446;5.404;2022-07-06T01:20:29;102271.06;;;16.26;43.85
13050;BME280;6591;51.446;5.404;2022-07-06T01:22:59;102272.94;;;16.24;43.98
13050;BME280;6591;51.446;5.404;2022-07-06T01:25:27;102271.19;;;16.23;43.73
13050;BME280;6591;51.446;5.404;2022-07-06T01:27:54;102271.34;;;16.20;44.09
13050;BME280;6591;51.446;5.404;2022-07-06T01:30:21;102271.41;;;16.18;44.16
13050;BME280;6591;51.446;5.404;2022-07-06T01:32:48;102275.09;;;16.16;44.31
13050;BME280;6591;51.446;5.404;2022-07-06T01:35:15;102281.41;;;16.15;43.74
13050;BME280;6591;51.446;5.404;2022-07-06T01:37:43;102277.13;;;16.10;44.49
13050;BME280;6591;51.446;5.404;2022-07-06T01:40:12;102274.50;;;16.09;44.34
13050;BME280;6591;51.446;5.404;2022-07-06T01:42:40;102271.88;;;16.07;44.41
13050;BME280;6591;51.446;5.404;2022-07-06T01:45:09;102273.69;;;16.07;44.47
13050;BME280;6591;51.446;5.404;2022-07-06T01:47:37;102279.94;;;16.07;44.57
13050;BME280;6591;51.446;5.404;2022-07-06T01:50:08;102279.16;;;16.05;44.67
13050;BME280;6591;51.446;5.404;2022-07-06T01:52:41;102272.91;;;16.05;45.09
13050;BME280;6591;51.446;5.404;2022-07-06T01:55:09;102266.69;;;16.04;44.50
13050;BME280;6591;51.446;5.404;2022-07-06T01:57:37;102265.88;;;16.02;44.68
13050;BME280;6591;51.446;5.404;2022-07-06T02:00:07;102264.16;;;16.01;44.93
13050;BME280;6591;51.446;5.404;2022-07-06T02:02:44;102268.69;;;15.99;44.80
13050;BME280;6591;51.446;5.404;2022-07-06T02:05:11;102266.94;;;15.98;45.04
13050;BME280;6591;51.446;5.404;2022-07-06T02:07:38;102271.44;;;15.98;45.04
13050;BME280;6591;51.446;5.404;2022-07-06T02:10:08;102275.06;;;15.97;45.22
13050;BME280;6591;51.446;5.404;2022-07-06T02:12:35;102275.91;;;15.97;45.27
13050;BME280;6591;51.446;5.404;2022-07-06T02:15:02;102280.41;;;15.97;45.24
13050;BME280;6591;51.446;5.404;2022-07-06T02:17:29;102275.13;;;15.95;45.26
13050;BME280;6591;51.446;5.404;2022-07-06T02:19:56;102276.00;;;15.96;45.28
13050;BME280;6591;51.446;5.404;2022-07-06T02:22:23;102273.34;;;15.96;45.48
13050;BME280;6591;51.446;5.404;2022-07-06T02:24:53;102267.97;;;15.96;45.57
13050;BME280;6591;51.446;5.404;2022-07-06T02:27:22;102267.09;;;15.95;45.71
13050;BME280;6591;51.446;5.404;2022-07-06T02:29:49;102274.19;;;15.96;45.72
13050;BME280;6591;51.446;5.404;2022-07-06T02:32:19;102273.25;;;15.97;45.48
13050;BME280;6591;51.446;5.404;2022-07-06T02:34:46;102275.13;;;15.95;45.84
13050;BME280;6591;51.446;5.404;2022-07-06T02:37:13;102268.97;;;15.93;45.72
13050;BME280;6591;51.446;5.404;2022-07-06T02:39:40;102269.03;;;15.92;45.80
13050;BME280;6591;51.446;5.404;2022-07-06T02:42:09;102262.00;;;15.89;45.64
13050;BME280;6591;51.446;5.404;2022-07-06T02:44:36;102268.31;;;15.88;45.81
13050;BME280;6591;51.446;5.404;2022-07-06T02:47:03;102257.78;;;15.84;46.08
13050;BME280;6591;51.446;5.404;2022-07-06T02:49:31;102268.50;;;15.84;46.05
13050;BME280;6591;51.446;5.404;2022-07-06T02:51:58;102262.28;;;15.83;46.08
13050;BME280;6591;51.446;5.404;2022-07-06T02:54:25;102264.09;;;15.83;46.18
13050;BME280;6591;51.446;5.404;2022-07-06T02:56:52;102264.16;;;15.81;46.44
13050;BME280;6591;51.446;5.404;2022-07-06T02:59:20;102272.19;;;15.81;46.17
13050;BME280;6591;51.446;5.404;2022-07-06T03:01:48;102277.63;;;15.80;46.28
13050;BME280;6591;51.446;5.404;2022-07-06T03:04:16;102275.88;;;15.79;46.74
13050;BME280;6591;51.446;5.404;2022-07-06T03:06:44;102278.63;;;15.77;46.58
13050;BME280;6591;51.446;5.404;2022-07-06T03:09:11;102270.59;;;15.77;46.67
13050;BME280;6591;51.446;5.404;2022-07-06T03:11:39;102268.78;;;15.78;46.72
13050;BME280;6591;51.446;5.404;2022-07-06T03:14:07;102274.06;;;15.79;46.87
13050;BME280;6591;51.446;5.404;2022-07-06T03:16:37;102272.13;;;15.83;46.92
13050;BME280;6591;51.446;5.404;2022-07-06T03:19:04;102277.47;;;15.83;46.73
13050;BME280;6591;51.446;5.404;2022-07-06T03:21:31;102278.34;;;15.83;46.93
13050;BME280;6591;51.446;5.404;2022-07-06T03:23:59;102282.72;;;15.86;46.68
13050;BME280;6591;51.446;5.404;2022-07-06T03:26:26;102288.06;;;15.86;47.03
13050;BME280;6591;51.446;5.404;2022-07-06T03:28:54;102288.84;;;15.88;47.08
13050;BME280;6591;51.446;5.404;2022-07-06T03:31:21;102283.44;;;15.89;46.60
13050;BME280;6591;51.446;5.404;2022-07-06T03:33:49;102285.19;;;15.90;46.99
13050;BME280;6591;51.446;5.404;2022-07-06T03:36:18;102286.84;;;15.93;47.29
13050;BME280;6591;51.446;5.404;2022-07-06T03:38:46;102277.06;;;15.92;47.07
13050;BME280;6591;51.446;5.404;2022-07-06T03:41:13;102280.50;;;15.95;47.27
13050;BME280;6591;51.446;5.404;2022-07-06T03:43:43;102283.19;;;15.95;47.31
13050;BME280;6591;51.446;5.404;2022-07-06T03:46:11;102283.91;;;15.99;47.20
13050;BME280;6591;51.446;5.404;2022-07-06T03:48:38;102285.66;;;16.00;47.39
13050;BME280;6591;51.446;5.404;2022-07-06T03:51:07;102289.06;;;16.03;47.34
13050;BME280;6591;51.446;5.404;2022-07-06T03:53:34;102289.88;;;16.05;47.34
13050;BME280;6591;51.446;5.404;2022-07-06T03:56:02;102285.28;;;16.07;47.41
13050;BME280;6591;51.446;5.404;2022-07-06T03:58:48;102285.22;;;16.09;47.29
13050;BME280;6591;51.446;5.404;2022-07-06T04:01:17;102278.88;;;16.12;47.27
13050;BME280;6591;51.446;5.404;2022-07-06T04:03:44;102278.72;;;16.15;47.48
13050;BME280;6591;51.446;5.404;2022-07-06T04:06:13;102277.72;;;16.17;47.62
13050;BME280;6591;51.446;5.404;2022-07-06T04:08:40;102281.13;;;16.21;47.49
13050;BME280;6591;51.446;5.404;2022-07-06T04:11:10;102280.03;;;16.25;47.63
13050;BME280;6591;51.446;5.404;2022-07-06T04:13:37;102277.28;;;16.26;47.53
13050;BME280;6591;51.446;5.404;2022-07-06T04:16:07;102276.16;;;16.32;47.90
13050;BME280;6591;51.446;5.404;2022-07-06T04:18:34;102272.38;;;16.36;47.59
13050;BME280;6591;51.446;5.404;2022-07-06T04:21:04;102265.97;;;16.38;47.71
13050;BME280;6591;51.446;5.404;2022-07-06T04:23:34;102265.69;;;16.44;47.97
13050;BME280;6591;51.446;5.404;2022-07-06T04:26:03;102274.41;;;16.49;47.79
13050;BME280;6591;51.446;5.404;2022-07-06T04:28:33;102267.09;;;16.53;47.66
13050;BME280;6591;51.446;5.404;2022-07-06T04:31:00;102261.59;;;16.56;47.88
13050;BME280;6591;51.446;5.404;2022-07-06T04:33:27;102261.41;;;16.61;47.82
13050;BME280;6591;51.446;5.404;2022-07-06T04:35:54;102264.81;;;16.64;47.93
13050;BME280;6591;51.446;5.404;2022-07-06T04:38:27;102256.56;;;16.69;47.75
13050;BME280;6591;51.446;5.404;2022-07-06T04:40:58;102261.69;;;16.73;47.51
13050;BME280;6591;51.446;5.404;2022-07-06T04:43:25;102260.59;;;16.77;47.82
13050;BME280;6591;51.446;5.404;2022-07-06T04:45:52;102263.84;;;16.84;47.88
13050;BME280;6591;51.446;5.404;2022-07-06T04:48:19;102258.97;;;16.92;48.12
13050;BME280;6591;51.446;5.404;2022-07-06T04:50:46;102260.47;;;16.98;48.23
13050;BME280;6591;51.446;5.404;2022-07-06T04:53:19;102264.44;;;17.08;47.88
13050;BME280;6591;51.446;5.404;2022-07-06T04:55:47;102259.59;;;17.16;48.10
13050;BME280;6591;51.446;5.404;2022-07-06T04:58:15;102259.91;;;17.27;48.07
13050;BME280;6591;51.446;5.404;2022-07-06T05:00:43;102254.09;;;17.36;48.42
13050;BME280;6591;51.446;5.404;2022-07-06T05:03:10;102263.22;;;17.49;48.32
13050;BME280;6591;51.446;5.404;2022-07-06T05:05:38;102260.91;;;17.60;48.36
13050;BME280;6591;51.446;5.404;2022-07-06T05:08:05;102264.69;;;17.73;48.33
13050;BME280;6591;51.446;5.404;2022-07-06T05:10:33;102261.28;;;17.87;48.22
13050;BME280;6591;51.446;5.404;2022-07-06T05:13:00;102267.66;;;18.02;48.12
13050;BME280;6591;51.446;5.404;2022-07-06T05:15:27;102274.88;;;18.17;48.13
13050;BME280;6591;51.446;5.404;2022-07-06T05:17:55;102267.91;;;18.30;48.36
13050;BME280;6591;51.446;5.404;2022-07-06T05:20:22;102278.69;;;18.46;48.31
13050;BME280;6591;51.446;5.404;2022-07-06T05:22:50;102276.06;;;18.61;48.26
13050;BME280;6591;51.446;5.404;2022-07-06T05:25:21;102277.81;;;18.78;48.35
13050;BME280;6591;51.446;5.404;2022-07-06T05:27:49;102286.63;;;18.96;48.35
13050;BME280;6591;51.446;5.404;2022-07-06T05:30:16;102282.19;;;19.11;48.49
13050;BME280;6591;51.446;5.404;2022-07-06T05:32:45;102274.78;;;19.30;48.29
13050;BME280;6591;51.446;5.404;2022-07-06T05:35:12;102286.31;;;19.48;48.06
13050;BME280;6591;51.446;5.404;2022-07-06T05:38:02;102279.84;;;19.66;48.17
13050;BME280;6591;51.446;5.404;2022-07-06T05:40:31;102288.66;;;19.83;47.97
13050;BME280;6591;51.446;5.404;2022-07-06T05:42:57;102277.81;;;19.99;47.84
13050;BME280;6591;51.446;5.404;2022-07-06T05:45:24;102280.50;;;20.13;47.79
13050;BME280;6591;51.446;5.404;2022-07-06T05:47:52;102285.53;;;20.34;47.38
13050;BME280;6591;51.446;5.404;2022-07-06T05:50:39;102284.38;;;20.52;47.61
13050;BME280;6591;51.446;5.404;2022-07-06T05:53:07;102279.63;;;20.69;47.45
13050;BME280;6591;51.446;5.404;2022-07-06T05:55:47;102283.72;;;20.89;47.53
13050;BME280;6591;51.446;5.404;2022-07-06T05:58:15;102283.28;;;21.09;46.99
13050;BME280;6591;51.446;5.404;2022-07-06T06:00:45;102287.41;;;21.29;46.57
13050;BME280;6591;51.446;5.404;2022-07-06T06:03:16;102290.50;;;21.50;46.46
13050;BME280;6591;51.446;5.404;2022-07-06T06:05:46;102287.38;;;21.69;45.83
13050;BME280;6591;51.446;5.404;2022-07-06T06:08:16;102293.38;;;21.86;45.64
13050;BME280;6591;51.446;5.404;2022-07-06T06:10:46;102299.59;;;22.01;45.57
13050;BME280;6591;51.446;5.404;2022-07-06T06:13:17;102297.63;;;22.16;45.56
13050;BME280;6591;51.446;5.404;2022-07-06T06:15:45;102290.50;;;22.27;45.37
13050;BME280;6591;51.446;5.404;2022-07-06T06:18:14;102295.88;;;22.40;44.79
13050;BME280;6591;51.446;5.404;2022-07-06T06:20:46;102289.59;;;22.52;44.95
13050;BME280;6591;51.446;5.404;2022-07-06T06:23:13;102290.22;;;22.68;44.24
13050;BME280;6591;51.446;5.404;2022-07-06T06:25:40;102300.81;;;22.84;44.14
13050;BME280;6591;51.446;5.404;2022-07-06T06:28:11;102285.59;;;22.94;43.74
13050;BME280;6591;51.446;5.404;2022-07-06T06:30:39;102292.94;;;23.05;43.94
13050;BME280;6591;51.446;5.404;2022-07-06T06:33:16;102290.75;;;23.10;43.50
13050;BME280;6591;51.446;5.404;2022-07-06T06:35:46;102286.50;;;23.18;43.47
13050;BME280;6591;51.446;5.404;2022-07-06T06:38:14;102286.88;;;23.25;43.14
13050;BME280;6591;51.446;5.404;2022-07-06T06:40:42;102290.88;;;23.32;42.83
13050;BME280;6591;51.446;5.404;2022-07-06T06:43:10;102292.16;;;23.39;42.74
13050;BME280;6591;51.446;5.404;2022-07-06T06:45:44;102287.34;;;23.43;42.70
13050;BME280;6591;51.446;5.404;2022-07-06T06:48:13;102298.63;;;23.49;42.97
13050;BME280;6591;51.446;5.404;2022-07-06T06:50:44;102297.91;;;23.58;42.72
13050;BME280;6591;51.446;5.404;2022-07-06T06:53:12;102301.28;;;23.73;42.33
13050;BME280;6591;51.446;5.404;2022-07-06T06:55:39;102298.63;;;23.84;42.40
13050;BME280;6591;51.446;5.404;2022-07-06T06:58:06;102301.25;;;23.97;42.26
13050;BME280;6591;51.446;5.404;2022-07-06T07:00:33;102301.25;;;24.08;42.12
13050;BME280;6591;51.446;5.404;2022-07-06T07:03:00;102302.16;;;24.20;41.37
13050;BME280;6591;51.446;5.404;2022-07-06T07:05:27;102306.84;;;24.29;41.48
13050;BME280;6591;51.446;5.404;2022-07-06T07:07:54;102306.16;;;24.38;41.43
13050;BME280;6591;51.446;5.404;2022-07-06T07:10:32;102298.97;;;24.48;40.92
13050;BME280;6591;51.446;5.404;2022-07-06T07:13:00;102301.81;;;24.58;40.92
13050;BME280;6591;51.446;5.404;2022-07-06T07:15:28;102305.63;;;24.66;40.35
13050;BME280;6591;51.446;5.404;2022-07-06T07:17:55;102311.56;;;24.71;39.69
13050;BME280;6591;51.446;5.404;2022-07-06T07:20:23;102306.13;;;24.71;39.51
13050;BME280;6591;51.446;5.404;2022-07-06T07:22:50;102307.72;;;24.74;39.48
13050;BME280;6591;51.446;5.404;2022-07-06T07:25:17;102308.44;;;24.76;39.50
13050;BME280;6591;51.446;5.404;2022-07-06T07:27:44;102314.25;;;24.82;39.14
13050;BME280;6591;51.446;5.404;2022-07-06T07:30:12;102300.81;;;24.92;39.24
13050;BME280;6591;51.446;5.404;2022-07-06T07:32:39;102295.13;;;25.06;38.70
13050;BME280;6591;51.446;5.404;2022-07-06T07:35:09;102301.25;;;25.19;38.42
13050;BME280;6591;51.446;5.404;2022-07-06T07:37:36;102303.81;;;25.32;37.84
13050;BME280;6591;51.446;5.404;2022-07-06T07:40:05;102303.13;;;25.40;37.70
13050;BME280;6591;51.446;5.404;2022-07-06T07:42:33;102303.22;;;25.49;37.04
13050;BME280;6591;51.446;5.404;2022-07-06T07:45:00;102305.22;;;25.58;37.05
13050;BME280;6591;51.446;5.404;2022-07-06T07:47:29;102303.81;;;25.64;36.25
13050;BME280;6591;51.446;5.404;2022-07-06T07:49:59;102310.59;;;25.69;36.21
13050;BME280;6591;51.446;5.404;2022-07-06T07:52:26;102307.09;;;25.79;35.97
13050;BME280;6591;51.446;5.404;2022-07-06T07:54:55;102308.13;;;25.87;35.71
13050;BME280;6591;51.446;5.404;2022-07-06T07:57:42;102309.06;;;25.97;35.48
13050;BME280;6591;51.446;5.404;2022-07-06T08:00:10;102298.63;;;26.02;35.52
13050;BME280;6591;51.446;5.404;2022-07-06T08:02:37;102300.84;;;26.08;34.89
13050;BME280;6591;51.446;5.404;2022-07-06T08:05:05;102292.88;;;26.17;35.35
13050;BME280;6591;51.446;5.404;2022-07-06T08:07:33;102289.59;;;26.23;34.77
13050;BME280;6591;51.446;5.404;2022-07-06T08:10:00;102284.94;;;26.34;34.61
13050;BME280;6591;51.446;5.404;2022-07-06T08:12:29;102284.13;;;26.43;35.24
13050;BME280;6591;51.446;5.404;2022-07-06T08:14:56;102290.22;;;26.56;34.73
13050;BME280;6591;51.446;5.404;2022-07-06T08:17:23;102287.69;;;26.74;34.83
13050;BME280;6591;51.446;5.404;2022-07-06T08:19:51;102286.34;;;26.89;34.21
13050;BME280;6591;51.446;5.404;2022-07-06T08:22:18;102292.09;;;27.06;34.23
13050;BME280;6591;51.446;5.404;2022-07-06T08:24:45;102289.38;;;27.15;33.66
13050;BME280;6591;51.446;5.404;2022-07-06T08:27:12;102295.13;;;27.22;33.14
13050;BME280;6591;51.446;5.404;2022-07-06T08:29:39;102294.84;;;27.25;33.27
13050;BME280;6591;51.446;5.404;2022-07-06T08:32:07;102284.06;;;27.33;33.27
13050;BME280;6591;51.446;5.404;2022-07-06T08:34:48;102279.81;;;27.50;33.39
13050;BME280;6591;51.446;5.404;2022-07-06T08:37:15;102280.94;;;27.66;33.44
13050;BME280;6591;51.446;5.404;2022-07-06T08:39:42;102285.38;;;27.77;33.45
13050;BME280;6591;51.446;5.404;2022-07-06T08:42:09;102284.94;;;27.91;33.04
13050;BME280;6591;51.446;5.404;2022-07-06T08:44:38;102285.94;;;28.00;33.04
13050;BME280;6591;51.446;5.404;2022-07-06T08:47:06;102280.25;;;28.11;32.92
13050;BME280;6591;51.446;5.404;2022-07-06T08:49:38;102275.38;;;28.24;33.28
13050;BME280;6591;51.446;5.404;2022-07-06T08:52:07;102286.53;;;28.40;32.66
13050;BME280;6591;51.446;5.404;2022-07-06T08:54:35;102275.88;;;28.47;32.56
13050;BME280;6591;51.446;5.404;2022-07-06T08:57:03;102268.31;;;28.58;32.88
13050;BME280;6591;51.446;5.404;2022-07-06T08:59:31;102281.38;;;28.64;32.64
13050;BME280;6591;51.446;5.404;2022-07-06T09:02:03;102270.16;;;28.68;32.03
13050;BME280;6591;51.446;5.404;2022-07-06T09:04:33;102270.59;;;28.73;32.49
13050;BME280;6591;51.446;5.404;2022-07-06T09:07:03;102268.09;;;28.79;31.99
13050;BME280;6591;51.446;5.404;2022-07-06T09:09:31;102273.13;;;28.84;31.81
13050;BME280;6591;51.446;5.404;2022-07-06T09:12:00;102279.19;;;28.78;31.63
13050;BME280;6591;51.446;5.404;2022-07-06T09:14:30;102278.81;;;28.73;31.42
13050;BME280;6591;51.446;5.404;2022-07-06T09:17:06;102276.06;;;28.73;31.80
13050;BME280;6591;51.446;5.404;2022-07-06T09:19:45;102271.06;;;28.86;31.60
13050;BME280;6591;51.446;5.404;2022-07-06T09:22:30;102268.44;;;28.94;31.50
13050;BME280;6591;51.446;5.404;2022-07-06T09:25:06;102268.91;;;29.07;31.11
13050;BME280;6591;51.446;5.404;2022-07-06T09:27:40;102272.53;;;29.25;31.66
13050;BME280;6591;51.446;5.404;2022-07-06T09:30:10;102271.78;;;29.51;31.41
13050;BME280;6591;51.446;5.404;2022-07-06T09:32:44;102274.41;;;29.78;30.90
13050;BME280;6591;51.446;5.404;2022-07-06T09:35:36;102274.34;;;30.13;31.07
13050;BME280;6591;51.446;5.404;2022-07-06T09:38:10;102273.88;;;30.52;30.38
13050;BME280;6591;51.446;5.404;2022-07-06T09:40:44;102270.75;;;30.89;30.24
13050;BME280;6591;51.446;5.404;2022-07-06T09:43:19;102277.88;;;31.16;29.88
13050;BME280;6591;51.446;5.404;2022-07-06T09:45:55;102273.09;;;31.42;29.59
13050;BME280;6591;51.446;5.404;2022-07-06T09:48:25;102280.34;;;31.59;28.85
13050;BME280;6591;51.446;5.404;2022-07-06T09:50:59;102277.59;;;31.67;29.13
13050;BME280;6591;51.446;5.404;2022-07-06T09:53:27;102284.50;;;31.71;28.39
13050;BME280;6591;51.446;5.404;2022-07-06T09:55:56;102284.28;;;31.73;28.40
13050;BME280;6591;51.446;5.404;2022-07-06T09:58:28;102277.94;;;31.72;28.48
13050;BME280;6591;51.446;5.404;2022-07-06T10:01:26;102278.31;;;31.61;27.75
13050;BME280;6591;51.446;5.404;2022-07-06T10:03:59;102282.41;;;31.57;28.15
13050;BME280;6591;51.446;5.404;2022-07-06T10:06:26;102275.88;;;31.50;28.68
13050;BME280;6591;51.446;5.404;2022-07-06T10:08:58;102286.16;;;31.40;27.71
13050;BME280;6591;51.446;5.404;2022-07-06T10:11:28;102278.94;;;31.23;28.17
13050;BME280;6591;51.446;5.404;2022-07-06T10:13:57;102282.16;;;31.10;27.81
13050;BME280;6591;51.446;5.404;2022-07-06T10:16:25;102286.75;;;31.01;27.51
13050;BME280;6591;51.446;5.404;2022-07-06T10:18:53;102286.75;;;31.01;27.98
13050;BME280;6591;51.446;5.404;2022-07-06T10:21:24;102290.38;;;31.10;27.92
13050;BME280;6591;51.446;5.404;2022-07-06T10:23:53;102287.31;;;31.21;27.51
13050;BME280;6591;51.446;5.404;2022-07-06T10:26:22;102285.47;;;31.30;27.31
13050;BME280;6591;51.446;5.404;2022-07-06T10:28:52;102277.22;;;31.30;26.84
13050;BME280;6591;51.446;5.404;2022-07-06T10:31:19;102284.78;;;31.28;27.29
13050;BME280;6591;51.446;5.404;2022-07-06T10:33:48;102283.22;;;31.33;27.16
13050;BME280;6591;51.446;5.404;2022-07-06T10:36:15;102285.13;;;31.33;26.61
13050;BME280;6591;51.446;5.404;2022-07-06T10:38:49;102281.16;;;31.27;26.38
13050;BME280;6591;51.446;5.404;2022-07-06T10:41:17;102280.47;;;31.25;26.89
13050;BME280;6591;51.446;5.404;2022-07-06T10:43:46;102283.03;;;31.19;26.09
13050;BME280;6591;51.446;5.404;2022-07-06T10:46:18;102278.91;;;31.06;26.10
13050;BME280;6591;51.446;5.404;2022-07-06T10:48:48;102285.03;;;31.00;26.55
13050;BME280;6591;51.446;5.404;2022-07-06T10:51:25;102292.53;;;30.90;26.47
13050;BME280;6591;51.446;5.404;2022-07-06T10:54:01;102284.47;;;30.89;26.67
13050;BME280;6591;51.446;5.404;2022-07-06T10:56:42;102283.97;;;30.93;26.90
13050;BME280;6591;51.446;5.404;2022-07-06T10:59:21;102277.16;;;31.05;26.56
13050;BME280;6591;51.446;5.404;2022-07-06T11:02:15;102278.91;;;31.14;26.53
13050;BME280;6591;51.446;5.404;2022-07-06T11:04:48;102272.75;;;31.29;26.68
13050;BME280;6591;51.446;5.404;2022-07-06T11:07:18;102271.06;;;31.44;25.98
13050;BME280;6591;51.446;5.404;2022-07-06T11:09:59;102268.97;;;31.46;25.81
13050;BME280;6591;51.446;5.404;2022-07-06T11:12:26;102270.53;;;31.48;25.68
13050;BME280;6591;51.446;5.404;2022-07-06T11:14:57;102258.16;;;31.52;25.59
13050;BME280;6591;51.446;5.404;2022-07-06T11:17:28;102271.09;;;31.60;25.93
13050;BME280;6591;51.446;5.404;2022-07-06T11:20:09;102268.16;;;31.62;25.65
13050;BME280;6591;51.446;5.404;2022-07-06T11:22:38;102275.72;;;31.60;25.14
13050;BME280;6591;51.446;5.404;2022-07-06T11:25:06;102268.13;;;31.53;25.18
13050;BME280;6591;51.446;5.404;2022-07-06T11:27:37;102267.59;;;31.42;24.69
13050;BME280;6591;51.446;5.404;2022-07-06T11:30:05;102270.38;;;31.34;24.90
13050;BME280;6591;51.446;5.404;2022-07-06T11:32:35;102265.22;;;31.39;25.29
13050;BME280;6591;51.446;5.404;2022-07-06T11:35:02;102276.03;;;31.56;25.93
13050;BME280;6591;51.446;5.404;2022-07-06T11:37:29;102274.84;;;31.83;25.80
13050;BME280;6591;51.446;5.404;2022-07-06T11:40:07;102267.44;;;32.16;25.83
13050;BME280;6591;51.446;5.404;2022-07-06T11:42:34;102259.88;;;32.57;25.62
13050;BME280;6591;51.446;5.404;2022-07-06T11:45:03;102249.91;;;32.95;25.26
13050;BME280;6591;51.446;5.404;2022-07-06T11:47:31;102241.72;;;33.18;24.24
13050;BME280;6591;51.446;5.404;2022-07-06T11:49:58;102235.88;;;33.36;24.89
13050;BME280;6591;51.446;5.404;2022-07-06T11:52:25;102232.97;;;33.52;24.71
13050;BME280;6591;51.446;5.404;2022-07-06T11:54:58;102235.03;;;33.73;24.57
13050;BME280;6591;51.446;5.404;2022-07-06T11:57:32;102242.47;;;33.87;23.80
13050;BME280;6591;51.446;5.404;2022-07-06T11:59:59;102230.91;;;33.91;23.81
13050;BME280;6591;51.446;5.404;2022-07-06T12:02:26;102230.06;;;34.06;23.92
13050;BME280;6591;51.446;5.404;2022-07-06T12:04:53;102236.28;;;34.22;23.23
13050;BME280;6591;51.446;5.404;2022-07-06T12:07:21;102231.38;;;34.39;23.52
13050;BME280;6591;51.446;5.404;2022-07-06T12:09:48;102227.50;;;34.48;22.97
13050;BME280;6591;51.446;5.404;2022-07-06T12:12:15;102219.84;;;34.50;23.14
13050;BME280;6591;51.446;5.404;2022-07-06T12:14:43;102214.69;;;34.62;23.13
13050;BME280;6591;51.446;5.404;2022-07-06T12:17:15;102220.44;;;34.75;23.08
13050;BME280;6591;51.446;5.404;2022-07-06T12:19:43;102205.53;;;34.91;22.66
13050;BME280;6591;51.446;5.404;2022-07-06T12:22:11;102204.19;;;35.08;22.78
13050;BME280;6591;51.446;5.404;2022-07-06T12:24:43;102203.56;;;35.27;22.27
13050;BME280;6591;51.446;5.404;2022-07-06T12:27:16;102201.69;;;35.55;22.70
13050;BME280;6591;51.446;5.404;2022-07-06T12:29:46;102200.69;;;35.91;22.47
13050;BME280;6591;51.446;5.404;2022-07-06T12:32:19;102206.91;;;36.34;22.50
13050;BME280;6591;51.446;5.404;2022-07-06T12:35:07;102204.50;;;36.65;21.61
13050;BME280;6591;51.446;5.404;2022-07-06T12:37:35;102202.25;;;36.88;21.04
13050;BME280;6591;51.446;5.404;2022-07-06T12:40:14;102198.22;;;36.98;21.08
13050;BME280;6591;51.446;5.404;2022-07-06T12:42:47;102194.44;;;37.18;20.92
13050;BME280;6591;51.446;5.404;2022-07-06T12:45:16;102189.53;;;37.47;21.51
13050;BME280;6591;51.446;5.404;2022-07-06T12:47:58;102198.28;;;37.77;21.04
13050;BME280;6591;51.446;5.404;2022-07-06T12:50:37;102189.72;;;38.04;20.74
13050;BME280;6591;51.446;5.404;2022-07-06T12:53:23;102181.72;;;38.28;20.37
13050;BME280;6591;51.446;5.404;2022-07-06T12:56:11;102193.84;;;38.40;19.48
13050;BME280;6591;51.446;5.404;2022-07-06T12:58:39;102191.09;;;38.46;20.16
13050;BME280;6591;51.446;5.404;2022-07-06T13:01:06;102193.44;;;38.36;19.72
13050;BME280;6591;51.446;5.404;2022-07-06T13:03:40;102192.66;;;38.16;19.21
13050;BME280;6591;51.446;5.404;2022-07-06T13:06:07;102191.63;;;38.04;19.60
13050;BME280;6591;51.446;5.404;2022-07-06T13:08:34;102194.38;;;37.97;19.41
13050;BME280;6591;51.446;5.404;2022-07-06T13:11:01;102196.97;;;37.92;19.48
13050;BME280;6591;51.446;5.404;2022-07-06T13:13:43;102192.28;;;37.80;18.54